createdAt,value
2022-10-11T00:00:54.668Z,12.04
2022-10-11T00:01:57.301Z,12.03
2022-10-11T00:03:00.966Z,12.04
2022-10-11T00:04:03.651Z,12.03
2022-10-11T00:05:06.884Z,12.04
2022-10-11T00:06:09.702Z,12.07
2022-10-11T00:07:12.445Z,12.07
2022-10-11T00:08:16.291Z,12.08
2022-10-11T00:09:19.002Z,12.06
2022-10-11T00:10:22.343Z,12.05
2022-10-11T00:11:25.220Z,12.06
2022-10-11T00:12:27.999Z,12.05
2022-10-11T00:13:30.990Z,12.03
2022-10-11T00:14:34.255Z,12.03
2022-10-11T00:15:40.581Z,12.01
2022-10-11T00:16:44.789Z,12.00
2022-10-11T00:17:47.844Z,11.97
2022-10-11T00:18:51.003Z,11.94
2022-10-11T00:19:53.804Z,11.94
2022-10-11T00:21:08.606Z,11.92
2022-10-11T00:22:11.311Z,11.91
2022-10-11T00:23:18.377Z,11.89
2022-10-11T00:24:21.240Z,11.88
2022-10-11T00:25:23.935Z,11.83
2022-10-11T00:26:26.603Z,11.84
2022-10-11T00:27:29.380Z,11.83
2022-10-11T00:28:36.411Z,11.82
2022-10-11T00:29:39.139Z,11.81
2022-10-11T00:30:43.902Z,11.77
2022-10-11T00:31:47.017Z,11.73
2022-10-11T00:32:50.665Z,11.74
2022-10-11T00:33:58.432Z,11.76
2022-10-11T00:35:04.996Z,11.75
2022-10-11T00:36:09.273Z,11.73
2022-10-11T00:37:12.221Z,11.73
2022-10-11T00:38:15.287Z,11.79
2022-10-11T00:39:18.473Z,11.88
2022-10-11T00:40:21.429Z,11.85
2022-10-11T00:41:24.274Z,11.86
2022-10-11T00:42:27.585Z,11.89
2022-10-11T00:43:32.310Z,11.86
2022-10-11T00:44:38.412Z,11.84
2022-10-11T00:45:40.978Z,11.86
2022-10-11T00:46:56.129Z,11.84
2022-10-11T00:48:24.294Z,11.80
2022-10-11T00:49:37.488Z,11.75
2022-10-11T00:50:40.425Z,11.72
2022-10-11T00:51:51.822Z,11.75
2022-10-11T00:53:00.332Z,11.74
2022-10-11T00:54:04.229Z,11.74
2022-10-11T00:55:14.627Z,11.72
2022-10-11T00:56:22.981Z,11.66
2022-10-11T00:57:29.857Z,11.69
2022-10-11T00:58:35.224Z,11.69
2022-10-11T00:59:42.782Z,11.70
2022-10-11T01:00:45.790Z,11.67
2022-10-11T01:01:49.392Z,11.66
2022-10-11T01:02:52.253Z,11.62
2022-10-11T01:03:56.056Z,11.61
2022-10-11T01:05:25.063Z,11.59
2022-10-11T01:06:21.991Z,11.58
2022-10-11T01:07:28.200Z,11.56
2022-10-11T01:08:31.868Z,11.58
2022-10-11T01:09:35.015Z,11.57
2022-10-11T01:10:37.834Z,11.50
2022-10-11T01:11:44.306Z,11.45
2022-10-11T01:13:10.134Z,11.41
2022-10-11T01:14:41.974Z,11.37
2022-10-11T01:15:56.960Z,11.32
2022-10-11T01:17:07.156Z,11.31
2022-10-11T01:18:27.183Z,11.28
2022-10-11T01:20:16.309Z,11.25
2022-10-11T01:21:32.761Z,11.24
2022-10-11T01:22:53.386Z,11.18
2022-10-11T01:24:28.248Z,11.15
2022-10-11T01:25:39.553Z,11.12
2022-10-11T01:27:25.765Z,11.07
2022-10-11T01:28:44.688Z,11.09
2022-10-11T01:30:03.838Z,11.06
2022-10-11T01:31:21.662Z,10.99
2022-10-11T01:32:31.922Z,10.91
2022-10-11T01:33:53.726Z,10.87
2022-10-11T01:35:10.502Z,10.86
2022-10-11T01:36:29.692Z,10.84
2022-10-11T01:37:35.334Z,10.86
2022-10-11T01:39:12.309Z,10.84
2022-10-11T01:40:24.057Z,10.84
2022-10-11T01:41:32.426Z,10.84
2022-10-11T01:42:39.280Z,10.87
2022-10-11T01:43:43.074Z,10.91
2022-10-11T01:44:48.477Z,10.90
2022-10-11T01:45:55.679Z,10.92
2022-10-11T01:46:58.465Z,10.91
2022-10-11T01:48:03.114Z,10.90
2022-10-11T01:49:06.059Z,10.91
2022-10-11T01:50:33.592Z,10.89
2022-10-11T01:51:58.543Z,10.82
2022-10-11T01:53:26.092Z,10.80
2022-10-11T01:55:08.561Z,10.76
2022-10-11T01:56:24.153Z,10.76
2022-10-11T01:57:45.666Z,10.71
2022-10-11T01:59:13.522Z,10.70
2022-10-11T02:00:21.170Z,10.67
2022-10-11T02:02:00.615Z,10.67
2022-10-11T02:03:29.530Z,10.64
2022-10-11T02:04:47.598Z,10.61
2022-10-11T02:05:56.053Z,10.61
2022-10-11T02:07:24.712Z,10.63
2022-10-11T02:08:34.436Z,10.53
2022-10-11T02:09:42.214Z,10.48
2022-10-11T02:11:01.247Z,10.46
2022-10-11T02:12:10.374Z,10.47
2022-10-11T02:13:34.334Z,10.50
2022-10-11T02:14:42.298Z,10.51
2022-10-11T02:15:48.961Z,10.51
2022-10-11T02:16:57.724Z,10.43
2022-10-11T02:18:06.688Z,10.36
2022-10-11T02:19:12.625Z,10.40
2022-10-11T02:20:21.091Z,10.37
2022-10-11T02:21:24.878Z,10.37
2022-10-11T02:22:41.203Z,10.40
2022-10-11T02:23:56.629Z,10.43
2022-10-11T02:25:03.148Z,10.51
2022-10-11T02:26:07.413Z,10.59
2022-10-11T02:27:12.823Z,10.65
2022-10-11T02:28:21.400Z,10.67
2022-10-11T02:29:29.309Z,10.72
2022-10-11T02:30:33.280Z,10.75
2022-10-11T02:31:41.339Z,10.77
2022-10-11T02:32:46.595Z,10.82
2022-10-11T02:33:58.286Z,10.83
2022-10-11T02:35:02.734Z,10.83
2022-10-11T02:36:25.392Z,10.86
2022-10-11T02:37:32.417Z,10.87
2022-10-11T02:38:41.649Z,10.87
2022-10-11T02:39:56.551Z,10.86
2022-10-11T02:41:11.182Z,10.85
2022-10-11T02:42:20.059Z,10.84
2022-10-11T02:43:33.855Z,10.87
2022-10-11T02:44:43.060Z,10.85
2022-10-11T02:45:51.416Z,10.83
2022-10-11T02:46:54.979Z,10.83
2022-10-11T02:47:58.489Z,10.79
2022-10-11T02:49:02.487Z,10.77
2022-10-11T02:50:05.738Z,10.73
2022-10-11T02:51:17.322Z,10.71
2022-10-11T02:52:20.529Z,10.69
2022-10-11T02:53:24.595Z,10.65
2022-10-11T02:54:27.836Z,10.65
2022-10-11T02:55:31.240Z,10.66
2022-10-11T02:56:34.013Z,10.73
2022-10-11T02:57:36.647Z,10.73
2022-10-11T02:58:40.259Z,10.67
2022-10-11T02:59:42.895Z,10.64
2022-10-11T03:00:45.757Z,10.59
2022-10-11T03:01:48.547Z,10.54
2022-10-11T03:02:51.320Z,10.50
2022-10-11T03:03:54.020Z,10.43
2022-10-11T03:04:56.685Z,10.41
2022-10-11T03:06:02.161Z,10.38
2022-10-11T03:07:05.064Z,10.34
2022-10-11T03:08:10.175Z,10.32
2022-10-11T03:09:12.843Z,10.35
2022-10-11T03:10:15.499Z,10.31
2022-10-11T03:11:18.297Z,10.29
2022-10-11T03:12:21.091Z,10.31
2022-10-11T03:13:24.018Z,10.29
2022-10-11T03:14:26.904Z,10.26
2022-10-11T03:15:29.824Z,10.22
2022-10-11T03:16:32.442Z,10.19
2022-10-11T03:17:36.979Z,10.17
2022-10-11T03:18:40.123Z,10.15
2022-10-11T03:19:42.756Z,10.18
2022-10-11T03:20:45.422Z,10.17
2022-10-11T03:21:48.069Z,10.16
2022-10-11T03:22:50.818Z,10.15
2022-10-11T03:23:53.514Z,10.16
2022-10-11T03:25:00.977Z,10.20
2022-10-11T03:26:06.653Z,10.23
2022-10-11T03:27:09.565Z,10.23
2022-10-11T03:28:12.276Z,10.24
2022-10-11T03:29:14.956Z,10.23
2022-10-11T03:30:18.463Z,10.25
2022-10-11T03:31:22.259Z,10.26
2022-10-11T03:32:25.378Z,10.25
2022-10-11T03:33:28.054Z,10.23
2022-10-11T03:34:30.706Z,10.23
2022-10-11T03:35:35.338Z,10.21
2022-10-11T03:36:37.904Z,10.20
2022-10-11T03:37:40.623Z,10.22
2022-10-11T03:38:43.232Z,10.22
2022-10-11T03:39:46.152Z,10.18
2022-10-11T03:41:56.598Z,10.15
2022-10-11T03:42:59.286Z,10.14
2022-10-11T03:44:01.950Z,10.15
2022-10-11T03:45:08.381Z,10.13
2022-10-11T03:46:11.085Z,10.13
2022-10-11T03:47:13.700Z,10.12
2022-10-11T03:48:16.384Z,10.12
2022-10-11T03:49:19.057Z,10.11
2022-10-11T03:50:25.449Z,10.11
2022-10-11T03:51:28.149Z,10.11
2022-10-11T03:52:30.796Z,10.12
2022-10-11T03:53:33.389Z,10.13
2022-10-11T03:54:36.038Z,10.14
2022-10-11T03:55:40.483Z,10.17
2022-10-11T03:56:43.370Z,10.17
2022-10-11T03:57:46.028Z,10.16
2022-10-11T03:58:49.051Z,10.15
2022-10-11T03:59:51.736Z,10.16
2022-10-11T04:00:54.544Z,10.18
2022-10-11T04:01:57.304Z,10.20
2022-10-11T04:03:00.433Z,10.23
2022-10-11T04:04:03.392Z,10.25
2022-10-11T04:05:06.820Z,10.28
2022-10-11T04:06:09.554Z,10.29
2022-10-11T04:07:12.167Z,10.36
2022-10-11T04:08:15.029Z,10.40
2022-10-11T04:10:25.764Z,10.46
2022-10-11T04:11:28.430Z,10.49
2022-10-11T04:12:31.115Z,10.50
2022-10-11T04:13:33.764Z,10.54
2022-10-11T04:14:36.343Z,10.56
2022-10-11T04:15:39.529Z,10.58
2022-10-11T04:16:42.584Z,10.58
2022-10-11T04:17:45.407Z,10.59
2022-10-11T04:18:48.268Z,10.60
2022-10-11T04:19:50.855Z,10.61
2022-10-11T04:20:53.591Z,10.63
2022-10-11T04:21:56.361Z,10.66
2022-10-11T04:22:59.209Z,10.68
2022-10-11T04:24:01.843Z,10.69
2022-10-11T04:25:05.954Z,10.72
2022-10-11T04:26:08.937Z,10.72
2022-10-11T04:27:11.849Z,10.75
2022-10-11T04:28:14.851Z,10.80
2022-10-11T04:29:17.684Z,10.88
2022-10-11T04:30:24.890Z,10.87
2022-10-11T04:31:27.569Z,10.86
2022-10-11T04:32:30.261Z,10.84
2022-10-11T04:33:32.881Z,10.85
2022-10-11T04:34:35.916Z,10.89
2022-10-11T04:35:38.831Z,10.91
2022-10-11T04:36:42.913Z,10.91
2022-10-11T04:37:48.013Z,10.89
2022-10-11T04:38:50.683Z,10.87
2022-10-11T04:39:53.243Z,10.87
2022-10-11T04:40:56.083Z,10.88
2022-10-11T04:41:58.996Z,10.88
2022-10-11T04:43:02.003Z,10.89
2022-10-11T04:44:04.978Z,10.90
2022-10-11T04:45:09.124Z,10.89
2022-10-11T04:46:12.040Z,10.90
2022-10-11T04:47:14.862Z,10.89
2022-10-11T04:48:18.239Z,10.90
2022-10-11T04:49:20.871Z,10.91
2022-10-11T04:50:23.487Z,10.93
2022-10-11T04:51:26.611Z,10.92
2022-10-11T04:52:29.603Z,10.93
2022-10-11T04:53:32.329Z,10.92
2022-10-11T04:54:36.321Z,10.90
2022-10-11T04:55:38.948Z,10.93
2022-10-11T04:56:41.590Z,10.95
2022-10-11T04:57:44.172Z,10.96
2022-10-11T04:58:52.067Z,10.95
2022-10-11T04:59:54.804Z,10.98
2022-10-11T05:00:57.967Z,10.98
2022-10-11T05:02:00.635Z,10.96
2022-10-11T05:03:03.262Z,10.92
2022-10-11T05:04:05.883Z,10.90
2022-10-11T05:05:08.964Z,10.89
2022-10-11T05:06:12.115Z,10.88
2022-10-11T05:07:15.143Z,10.89
2022-10-11T05:08:17.885Z,10.94
2022-10-11T05:09:21.936Z,10.91
2022-10-11T05:10:24.575Z,10.92
2022-10-11T05:11:27.191Z,10.90
2022-10-11T05:12:33.358Z,10.90
2022-10-11T05:13:36.505Z,10.90
2022-10-11T05:14:39.112Z,10.88
2022-10-11T05:15:41.672Z,10.88
2022-10-11T05:16:44.417Z,10.88
2022-10-11T05:17:47.175Z,10.88
2022-10-11T05:18:50.018Z,10.89
2022-10-11T05:19:53.067Z,10.89
2022-10-11T05:21:23.138Z,10.92
2022-10-11T05:22:25.674Z,10.92
2022-10-11T05:23:30.363Z,10.91
2022-10-11T05:24:32.989Z,10.90
2022-10-11T05:25:35.580Z,10.92
2022-10-11T05:26:39.433Z,10.92
2022-10-11T05:27:42.120Z,10.93
2022-10-11T05:28:44.917Z,10.95
2022-10-11T05:29:47.668Z,10.96
2022-10-11T05:30:51.450Z,10.98
2022-10-11T05:31:54.027Z,10.99
2022-10-11T05:32:56.532Z,11.01
2022-10-11T05:34:00.129Z,11.02
2022-10-11T05:35:02.862Z,11.04
2022-10-11T05:36:07.521Z,11.07
2022-10-11T05:37:10.548Z,11.13
2022-10-11T05:38:13.492Z,11.15
2022-10-11T05:39:16.175Z,11.18
2022-10-11T05:40:18.830Z,11.20
2022-10-11T05:41:21.390Z,11.21
2022-10-11T05:42:23.958Z,11.24
2022-10-11T05:43:27.308Z,11.29
2022-10-11T05:44:29.945Z,11.31
2022-10-11T05:45:35.734Z,11.31
2022-10-11T05:46:38.932Z,11.35
2022-10-11T05:47:41.629Z,11.36
2022-10-11T05:48:44.233Z,11.35
2022-10-11T05:49:46.817Z,11.38
2022-10-11T05:50:49.382Z,11.36
2022-10-11T05:51:51.937Z,11.37
2022-10-11T05:52:54.730Z,11.40
2022-10-11T05:53:57.482Z,11.40
2022-10-11T05:54:59.976Z,11.42
2022-10-11T05:56:02.945Z,11.43
2022-10-11T05:57:05.784Z,11.44
2022-10-11T05:58:13.228Z,11.45
2022-10-11T05:59:15.759Z,11.51
2022-10-11T06:00:18.511Z,11.54
2022-10-11T06:01:25.895Z,11.54
2022-10-11T06:02:30.523Z,11.57
2022-10-11T06:03:33.308Z,11.59
2022-10-11T06:04:39.540Z,11.61
2022-10-11T06:05:42.228Z,11.64
2022-10-11T06:06:45.397Z,11.65
2022-10-11T06:07:47.992Z,11.67
2022-10-11T06:08:50.690Z,11.69
2022-10-11T06:09:53.288Z,11.72
2022-10-11T06:10:55.922Z,11.74
2022-10-11T06:11:58.418Z,11.76
2022-10-11T06:13:07.369Z,11.79
2022-10-11T06:14:10.069Z,11.83
2022-10-11T06:15:12.783Z,11.84
2022-10-11T06:16:16.347Z,11.84
2022-10-11T06:17:19.309Z,11.86
2022-10-11T06:18:22.249Z,11.88
2022-10-11T06:19:25.097Z,11.91
2022-10-11T06:20:28.117Z,11.93
2022-10-11T06:21:31.020Z,11.95
2022-10-11T06:22:33.661Z,11.98
2022-10-11T06:23:36.429Z,12.01
2022-10-11T06:24:39.028Z,12.04
2022-10-11T06:25:41.774Z,12.05
2022-10-11T06:26:44.475Z,12.06
2022-10-11T06:27:47.194Z,12.06
2022-10-11T06:28:49.883Z,12.07
2022-10-11T06:29:52.657Z,12.09
2022-10-11T06:30:56.472Z,12.09
2022-10-11T06:31:59.326Z,12.11
2022-10-11T06:33:04.821Z,12.13
2022-10-11T06:34:07.944Z,12.15
2022-10-11T06:35:10.625Z,12.15
2022-10-11T06:36:14.914Z,12.18
2022-10-11T06:37:17.586Z,12.20
2022-10-11T06:38:21.004Z,12.24
2022-10-11T06:39:23.693Z,12.26
2022-10-11T06:40:26.535Z,12.32
2022-10-11T06:41:30.599Z,12.35
2022-10-11T06:42:33.235Z,12.40
2022-10-11T06:43:36.102Z,12.46
2022-10-11T06:44:39.516Z,12.51
2022-10-11T06:45:42.322Z,12.52
2022-10-11T06:47:52.572Z,12.56
2022-10-11T06:48:56.682Z,12.57
2022-10-11T06:49:59.388Z,12.60
2022-10-11T06:51:02.162Z,12.63
2022-10-11T06:52:05.254Z,12.67
2022-10-11T06:53:08.217Z,12.73
2022-10-11T06:54:10.911Z,12.75
2022-10-11T06:55:13.873Z,12.78
2022-10-11T06:56:16.542Z,12.82
2022-10-11T06:57:19.405Z,12.87
2022-10-11T06:58:22.112Z,12.92
2022-10-11T06:59:25.012Z,12.96
2022-10-11T07:00:27.685Z,13.01
2022-10-11T07:01:30.602Z,13.06
2022-10-11T07:02:33.493Z,13.09
2022-10-11T07:03:36.360Z,13.14
2022-10-11T07:04:39.584Z,13.18
2022-10-11T07:05:42.144Z,13.22
2022-10-11T07:06:44.871Z,13.23
2022-10-11T07:07:47.647Z,13.24
2022-10-11T07:08:50.500Z,13.26
2022-10-11T07:09:53.579Z,13.28
2022-10-11T07:11:01.558Z,13.33
2022-10-11T07:12:04.336Z,13.37
2022-10-11T07:13:07.134Z,13.39
2022-10-11T07:14:10.637Z,13.41
2022-10-11T07:15:13.504Z,13.43
2022-10-11T07:16:16.222Z,13.45
2022-10-11T07:17:18.847Z,13.47
2022-10-11T07:18:21.675Z,13.50
2022-10-11T07:19:24.583Z,13.51
2022-10-11T07:20:27.200Z,13.52
2022-10-11T07:21:31.994Z,13.55
2022-10-11T07:22:34.655Z,13.55
2022-10-11T07:23:37.732Z,13.56
2022-10-11T07:24:40.742Z,13.59
2022-10-11T07:25:44.523Z,13.60
2022-10-11T07:26:47.264Z,13.65
2022-10-11T07:27:50.289Z,13.66
2022-10-11T07:28:53.011Z,13.69
2022-10-11T07:29:55.888Z,13.71
2022-10-11T07:30:59.364Z,13.74
2022-10-11T07:32:02.012Z,13.76
2022-10-11T07:33:05.139Z,13.81
2022-10-11T07:34:08.611Z,13.84
2022-10-11T07:35:11.424Z,13.89
2022-10-11T07:36:15.948Z,13.92
2022-10-11T07:37:18.849Z,13.96
2022-10-11T07:38:21.820Z,14.02
2022-10-11T07:39:24.936Z,14.06
2022-10-11T07:40:27.885Z,14.07
2022-10-11T07:41:30.544Z,14.10
2022-10-11T07:42:33.850Z,14.12
2022-10-11T07:43:37.540Z,14.17
2022-10-11T07:44:40.564Z,14.22
2022-10-11T07:45:47.867Z,14.25
2022-10-11T07:46:50.554Z,14.26
2022-10-11T07:47:56.395Z,14.31
2022-10-11T07:48:59.542Z,14.33
2022-10-11T07:50:02.239Z,14.35
2022-10-11T07:51:10.963Z,14.40
2022-10-11T07:52:13.618Z,14.42
2022-10-11T07:53:16.231Z,14.46
2022-10-11T07:54:18.850Z,14.51
2022-10-11T07:55:21.432Z,14.55
2022-10-11T07:56:27.113Z,14.55
2022-10-11T07:57:29.840Z,14.54
2022-10-11T07:58:33.241Z,14.57
2022-10-11T07:59:36.119Z,14.57
2022-10-11T08:01:42.661Z,14.66
2022-10-11T08:02:45.323Z,14.74
2022-10-11T08:03:49.169Z,14.79
2022-10-11T08:04:51.799Z,14.84
2022-10-11T08:05:54.442Z,14.90
2022-10-11T08:06:57.049Z,15.00
2022-10-11T08:07:59.992Z,15.07
2022-10-11T08:09:02.931Z,15.13
2022-10-11T08:10:06.932Z,15.21
2022-10-11T08:11:10.663Z,15.29
2022-10-11T08:12:13.382Z,15.34
2022-10-11T08:13:16.120Z,15.39
2022-10-11T08:14:19.190Z,15.44
2022-10-11T08:15:22.104Z,15.46
2022-10-11T08:16:25.307Z,15.52
2022-10-11T08:17:29.888Z,15.57
2022-10-11T08:18:33.288Z,15.73
2022-10-11T08:19:35.864Z,15.89
2022-10-11T08:20:39.771Z,15.99
2022-10-11T08:21:42.361Z,16.01
2022-10-11T08:22:44.946Z,15.92
2022-10-11T08:23:47.622Z,15.89
2022-10-11T08:24:50.263Z,15.89
2022-10-11T08:25:57.386Z,15.93
2022-10-11T08:27:00.035Z,15.95
2022-10-11T08:28:02.631Z,16.05
2022-10-11T08:29:05.439Z,16.11
2022-10-11T08:30:08.867Z,16.15
2022-10-11T08:31:16.170Z,16.10
2022-10-11T08:32:18.877Z,16.06
2022-10-11T08:33:25.449Z,16.07
2022-10-11T08:34:28.007Z,16.14
2022-10-11T08:35:30.706Z,16.12
2022-10-11T08:36:33.641Z,16.23
2022-10-11T08:37:36.272Z,16.32
2022-10-11T08:38:39.844Z,16.30
2022-10-11T08:39:42.608Z,16.39
2022-10-11T08:40:55.119Z,16.45
2022-10-11T08:42:03.303Z,16.48
2022-10-11T08:43:13.720Z,16.53
2022-10-11T08:45:10.147Z,16.52
2022-10-11T08:46:15.414Z,16.59
2022-10-11T08:47:21.190Z,16.69
2022-10-11T08:48:33.242Z,16.82
2022-10-11T08:49:36.950Z,16.82
2022-10-11T08:50:39.972Z,16.82
2022-10-11T08:51:43.435Z,16.85
2022-10-11T08:52:53.228Z,16.96
2022-10-11T08:54:01.343Z,16.96
2022-10-11T08:55:16.546Z,17.00
2022-10-11T08:56:20.929Z,17.11
2022-10-11T08:57:28.171Z,17.18
2022-10-11T08:58:59.621Z,17.22
2022-10-11T09:00:12.974Z,17.25
2022-10-11T09:01:20.850Z,17.20
2022-10-11T09:03:02.929Z,17.27
2022-10-11T09:04:01.047Z,17.39
2022-10-11T09:05:09.407Z,17.49
2022-10-11T09:06:17.915Z,17.56
2022-10-11T09:07:59.777Z,17.68
2022-10-11T09:09:15.699Z,17.83
2022-10-11T09:10:37.811Z,17.90
2022-10-11T09:12:05.680Z,17.92
2022-10-11T09:13:31.920Z,18.03
2022-10-11T09:14:40.519Z,18.04
2022-10-11T09:15:47.045Z,18.13
2022-10-11T09:17:15.740Z,18.14
2022-10-11T09:18:41.347Z,18.10
2022-10-11T09:19:56.227Z,18.16
2022-10-11T09:21:49.607Z,18.26
2022-10-11T09:23:11.667Z,18.34
2022-10-11T09:24:38.992Z,18.36
2022-10-11T09:25:57.540Z,18.28
2022-10-11T09:27:15.013Z,18.30
2022-10-11T09:28:29.289Z,18.42
2022-10-11T09:29:57.015Z,18.39
2022-10-11T09:30:59.853Z,18.40
2022-10-11T09:32:02.921Z,18.45
2022-10-11T09:33:34.459Z,18.46
2022-10-11T09:34:42.431Z,18.48
2022-10-11T09:35:49.521Z,18.52
2022-10-11T09:37:16.594Z,18.46
2022-10-11T09:38:26.885Z,18.34
2022-10-11T09:39:36.609Z,18.50
2022-10-11T09:40:59.183Z,18.49
2022-10-11T09:42:12.561Z,18.52
2022-10-11T09:43:15.405Z,18.61
2022-10-11T09:44:46.003Z,18.56
2022-10-11T09:45:49.808Z,18.58
2022-10-11T09:46:54.939Z,18.56
2022-10-11T09:48:01.912Z,18.53
2022-10-11T09:49:09.581Z,18.63
2022-10-11T09:50:26.287Z,18.69
2022-10-11T09:51:29.946Z,18.81
2022-10-11T09:52:33.668Z,18.90
2022-10-11T09:54:03.009Z,18.84
2022-10-11T09:55:06.585Z,18.83
2022-10-11T09:56:09.855Z,18.92
2022-10-11T09:57:26.412Z,18.91
2022-10-11T09:58:35.512Z,18.95
2022-10-11T09:59:38.263Z,18.96
2022-10-11T10:00:40.898Z,19.03
2022-10-11T10:01:44.992Z,19.13
2022-10-11T10:02:50.940Z,19.15
2022-10-11T10:04:10.231Z,19.25
2022-10-11T10:05:16.463Z,19.12
2022-10-11T10:06:28.829Z,19.11
2022-10-11T10:07:34.035Z,19.11
2022-10-11T10:08:38.315Z,19.03
2022-10-11T10:09:40.869Z,18.97
2022-10-11T10:11:08.534Z,19.06
2022-10-11T10:12:13.424Z,18.90
2022-10-11T10:13:24.801Z,18.73
2022-10-11T10:14:30.440Z,18.82
2022-10-11T10:15:37.807Z,18.72
2022-10-11T10:16:40.443Z,18.72
2022-10-11T10:17:52.180Z,18.76
2022-10-11T10:19:19.263Z,18.69
2022-10-11T10:20:25.245Z,18.56
2022-10-11T10:21:31.825Z,18.51
2022-10-11T10:22:35.823Z,18.53
2022-10-11T10:23:38.746Z,18.52
2022-10-11T10:24:42.739Z,18.54
2022-10-11T10:25:51.195Z,18.54
2022-10-11T10:27:24.246Z,18.46
2022-10-11T10:28:27.878Z,18.50
2022-10-11T10:29:30.689Z,18.55
2022-10-11T10:30:35.683Z,18.62
2022-10-11T10:32:13.509Z,18.55
2022-10-11T10:33:17.389Z,18.53
2022-10-11T10:34:36.743Z,18.46
2022-10-11T10:35:45.623Z,18.50
2022-10-11T10:36:56.085Z,18.46
2022-10-11T10:38:01.301Z,18.54
2022-10-11T10:39:35.308Z,18.52
2022-10-11T10:40:47.587Z,18.57
2022-10-11T10:41:50.368Z,18.47
2022-10-11T10:42:53.106Z,18.49
2022-10-11T10:44:00.802Z,18.53
2022-10-11T10:45:12.172Z,18.56
2022-10-11T10:46:31.168Z,18.54
2022-10-11T10:47:45.531Z,18.62
2022-10-11T10:50:27.887Z,18.71
2022-10-11T10:51:39.208Z,18.62
2022-10-11T10:53:07.920Z,18.61
2022-10-11T10:54:44.348Z,18.71
2022-10-11T10:56:11.139Z,18.70
2022-10-11T10:57:23.934Z,18.71
2022-10-11T10:59:04.228Z,18.75
2022-10-11T11:00:15.127Z,18.72
2022-10-11T11:01:26.709Z,18.67
2022-10-11T11:02:51.908Z,18.58
2022-10-11T11:04:09.598Z,18.59
2022-10-11T11:05:32.368Z,18.59
2022-10-11T11:06:58.067Z,18.57
2022-10-11T11:08:00.763Z,18.72
2022-10-11T11:09:19.569Z,18.76
2022-10-11T11:10:42.752Z,18.77
2022-10-11T11:12:18.846Z,18.83
2022-10-11T11:13:33.289Z,18.96
2022-10-11T11:14:54.220Z,18.95
2022-10-11T11:16:29.144Z,19.03
2022-10-11T11:17:41.761Z,19.17
2022-10-11T11:19:05.847Z,19.23
2022-10-11T11:20:30.051Z,19.32
2022-10-11T11:21:53.436Z,19.39
2022-10-11T11:23:27.580Z,19.44
2022-10-11T11:24:49.073Z,19.56
2022-10-11T11:26:04.914Z,19.61
2022-10-11T11:27:27.714Z,19.67
2022-10-11T11:28:52.555Z,19.75
2022-10-11T11:29:58.113Z,19.95
2022-10-11T11:31:10.589Z,20.00
2022-10-11T11:32:24.299Z,20.04
2022-10-11T11:33:55.496Z,20.04
2022-10-11T11:35:03.938Z,20.06
2022-10-11T11:36:13.583Z,19.99
2022-10-11T11:37:45.908Z,19.93
2022-10-11T11:38:58.258Z,19.92
2022-10-11T11:40:15.688Z,19.90
2022-10-11T11:41:34.713Z,20.03
2022-10-11T11:42:46.473Z,20.06
2022-10-11T11:44:03.192Z,19.96
2022-10-11T11:45:17.868Z,19.91
2022-10-11T11:46:29.134Z,19.90
2022-10-11T11:47:37.940Z,19.85
2022-10-11T11:48:41.394Z,19.66
2022-10-11T11:49:55.251Z,19.60
2022-10-11T11:51:03.952Z,19.61
2022-10-11T11:52:11.967Z,19.49
2022-10-11T11:53:19.534Z,19.51
2022-10-11T11:54:29.736Z,19.43
2022-10-11T11:55:48.599Z,19.44
2022-10-11T11:57:02.635Z,19.30
2022-10-11T11:58:26.172Z,19.16
2022-10-11T11:59:37.170Z,19.08
2022-10-11T12:01:04.573Z,19.02
2022-10-11T12:02:35.295Z,18.93
2022-10-11T12:03:43.280Z,18.89
2022-10-11T12:04:48.875Z,18.82
2022-10-11T12:06:30.921Z,18.79
2022-10-11T12:07:49.038Z,18.80
2022-10-11T12:09:17.084Z,18.67
2022-10-11T12:10:34.222Z,18.56
2022-10-11T12:11:43.726Z,18.47
2022-10-11T12:12:46.410Z,18.42
2022-10-11T12:13:51.431Z,18.45
2022-10-11T12:15:04.543Z,18.47
2022-10-11T12:16:09.850Z,18.32
2022-10-11T12:17:16.297Z,18.33
2022-10-11T12:18:20.828Z,18.41
2022-10-11T12:19:23.544Z,18.56
2022-10-11T12:20:41.059Z,18.65
2022-10-11T12:21:44.599Z,18.76
2022-10-11T12:22:50.065Z,18.73
2022-10-11T12:23:55.113Z,18.67
2022-10-11T12:25:00.589Z,18.69
2022-10-11T12:26:28.120Z,18.80
2022-10-11T12:27:49.360Z,18.86
2022-10-11T12:29:17.212Z,18.87
2022-10-11T12:30:47.127Z,18.89
2022-10-11T12:32:11.471Z,18.93
2022-10-11T12:33:16.661Z,18.84
2022-10-11T12:34:49.084Z,19.02
2022-10-11T12:36:05.701Z,18.99
2022-10-11T12:37:20.124Z,18.98
2022-10-11T12:38:35.290Z,18.95
2022-10-11T12:39:49.328Z,19.05
2022-10-11T12:40:56.385Z,18.98
2022-10-11T12:42:20.503Z,18.93
2022-10-11T12:43:28.665Z,19.12
2022-10-11T12:44:31.348Z,19.12
2022-10-11T12:45:37.680Z,19.15
2022-10-11T12:47:04.642Z,18.98
2022-10-11T12:48:33.943Z,18.81
2022-10-11T12:50:16.870Z,18.77
2022-10-11T12:51:28.400Z,18.66
2022-10-11T12:52:36.578Z,18.68
2022-10-11T12:54:21.870Z,18.70
2022-10-11T12:55:46.137Z,18.72
2022-10-11T12:57:12.450Z,18.76
2022-10-11T12:58:50.103Z,18.83
2022-10-11T12:59:52.920Z,18.94
2022-10-11T13:00:56.391Z,19.01
2022-10-11T13:02:00.342Z,19.05
2022-10-11T13:03:06.176Z,19.20
2022-10-11T13:04:11.630Z,19.14
2022-10-11T13:05:31.553Z,19.17
2022-10-11T13:06:39.012Z,19.11
2022-10-11T13:07:43.331Z,19.12
2022-10-11T13:08:55.055Z,19.19
2022-10-11T13:09:57.916Z,19.17
2022-10-11T13:11:10.079Z,19.19
2022-10-11T13:12:19.951Z,19.18
2022-10-11T13:13:27.036Z,19.04
2022-10-11T13:14:35.439Z,18.95
2022-10-11T13:15:38.073Z,18.92
2022-10-11T13:17:04.738Z,18.91
2022-10-11T13:18:15.650Z,18.91
2022-10-11T13:19:23.190Z,18.85
2022-10-11T13:20:29.836Z,18.70
2022-10-11T13:21:36.698Z,18.62
2022-10-11T13:22:40.852Z,18.51
2022-10-11T13:23:44.665Z,18.45
2022-10-11T13:24:47.457Z,18.33
2022-10-11T13:25:50.454Z,18.23
2022-10-11T13:26:57.250Z,18.23
2022-10-11T13:28:00.110Z,18.16
2022-10-11T13:29:02.844Z,18.10
2022-10-11T13:30:12.342Z,18.04
2022-10-11T13:31:15.076Z,18.03
2022-10-11T13:32:26.548Z,18.03
2022-10-11T13:33:38.434Z,18.04
2022-10-11T13:34:41.910Z,18.06
2022-10-11T13:35:44.855Z,18.06
2022-10-11T13:36:48.635Z,18.10
2022-10-11T13:37:53.008Z,18.12
2022-10-11T13:39:03.696Z,18.15
2022-10-11T13:40:06.916Z,18.19
2022-10-11T13:41:10.708Z,18.25
2022-10-11T13:42:16.318Z,18.25
2022-10-11T13:43:27.621Z,18.26
2022-10-11T13:44:33.541Z,18.28
2022-10-11T13:45:37.191Z,18.29
2022-10-11T13:46:41.807Z,18.31
2022-10-11T13:47:46.308Z,18.35
2022-10-11T13:49:27.680Z,18.40
2022-10-11T13:50:34.089Z,18.44
2022-10-11T13:51:37.790Z,18.49
2022-10-11T13:52:55.209Z,18.57
2022-10-11T13:54:13.154Z,18.60
2022-10-11T13:55:27.750Z,18.65
2022-10-11T13:56:36.627Z,18.72
2022-10-11T13:57:46.357Z,18.75
2022-10-11T13:58:49.063Z,18.90
2022-10-11T13:59:51.646Z,18.80
2022-10-11T14:01:00.580Z,18.66
2022-10-11T14:02:04.637Z,18.63
2022-10-11T14:03:19.387Z,18.50
2022-10-11T14:04:25.061Z,18.51
2022-10-11T14:05:39.489Z,18.38
2022-10-11T14:06:44.771Z,18.28
2022-10-11T14:07:48.212Z,18.24
2022-10-11T14:08:59.027Z,18.17
2022-10-11T14:10:02.511Z,18.12
2022-10-11T14:11:10.656Z,18.00
2022-10-11T14:12:32.769Z,17.92
2022-10-11T14:13:38.841Z,17.88
2022-10-11T14:14:43.041Z,17.79
2022-10-11T14:15:45.747Z,17.72
2022-10-11T14:16:59.185Z,17.63
2022-10-11T14:18:23.074Z,17.56
2022-10-11T14:19:25.734Z,17.52
2022-10-11T14:20:40.271Z,17.45
2022-10-11T14:21:45.984Z,17.46
2022-10-11T14:22:52.742Z,17.37
2022-10-11T14:24:01.443Z,17.31
2022-10-11T14:25:04.469Z,17.25
2022-10-11T14:26:13.053Z,17.19
2022-10-11T14:27:22.703Z,17.13
2022-10-11T14:28:25.332Z,17.07
2022-10-11T14:29:39.743Z,17.01
2022-10-11T14:30:46.563Z,16.96
2022-10-11T14:31:49.855Z,16.91
2022-10-11T14:32:54.762Z,16.92
2022-10-11T14:33:58.193Z,16.85
2022-10-11T14:35:01.662Z,16.79
2022-10-11T14:36:04.949Z,16.70
2022-10-11T14:37:08.063Z,16.69
2022-10-11T14:38:12.100Z,16.67
2022-10-11T14:39:17.737Z,16.64
2022-10-11T14:40:23.961Z,16.59
2022-10-11T14:41:29.693Z,16.53
2022-10-11T14:42:32.261Z,16.46
2022-10-11T14:43:36.144Z,16.44
2022-10-11T14:44:38.883Z,16.37
2022-10-11T14:45:41.504Z,16.31
2022-10-11T14:46:45.136Z,16.28